Mercs Mahaweli — 4RBQ — position and weather

sailwx.info

Track history (hours):
 
Tides and Currents Weather Stations Pressure Air Temp Water Temp Dewpoint Dewpoint Depression Visibility Wind Speed Wind Dir Waves Ship Positions

Mercs Mahaweli

Last reported at 2018-Feb-16 03:15 UTC. Time now 2018-Feb-19 04:26 UTC.
Position N 01°19' E 104°08'.

Length 140 m; draft 7.8 m.

Type: Ship (hazmat cat A). MMSI: 417222330.

Date/timePositionNaut miles runAvg speedWind from/ knotsBaromVisibWave heightAir tempDewpointWater temp
2018-Feb-16 03:15N 01°19' E 104°08'0 0.3
2018-Feb-16 02:59N 01°19' E 104°08'0 0.1
2018-Feb-16 02:24N 01°19' E 104°08'0 0.0
2018-Feb-16 01:29N 01°19' E 104°08'0 0.0
2018-Feb-16 01:00N 01°19' E 104°08'0 0.0
2018-Feb-16 00:27N 01°19' E 104°08'0 0.0
2018-Feb-15 23:59N 01°19' E 104°08'0 0.0
2018-Feb-15 23:30N 01°19' E 104°08'0 0.0
2018-Feb-15 22:54N 01°19' E 104°08'0 0.0
2018-Feb-15 17:15N 01°19' E 104°08'0 0.0
2018-Feb-15 16:30N 01°19' E 104°08'0 0.0
2018-Feb-15 15:59N 01°19' E 104°08'1 0.8
2018-Feb-15 14:58N 01°19' E 104°07'14 3.7
2018-Feb-15 11:04N 01°26' E 103°55'0 0.0
2018-Feb-15 10:58N 01°26' E 103°55'0 0.0
2018-Feb-14 23:10N 01°26' E 103°55'0 0.0
2018-Feb-14 22:59N 01°26' E 103°55'11 7.4
2018-Feb-14 21:29N 01°20' E 104°04'4 6.2
2018-Feb-14 20:53N 01°19' E 104°08'0 0.1
2018-Feb-14 17:35N 01°19' E 104°08'9 6.9
2018-Feb-14 16:16N 01°15' E 104°00'512.7
2018-Feb-14 15:51N 01°13' E 103°55'3 7.4
2018-Feb-14 15:28N 01°12' E 103°53'510.0
2018-Feb-14 14:59N 01°10' E 103°48'510.0
2018-Feb-14 14:29N 01°06' E 103°45'611.1
2018-Feb-14 13:58N 01°03' E 103°40'714.2
2018-Feb-14 13:30N 01°06' E 103°33'714.1
2018-Feb-14 12:59N 01°10' E 103°27'  
Track history (hours):
 
Tides and Currents Weather Stations Pressure Air Temp Water Temp Dewpoint Dewpoint Depression Visibility Wind Speed Wind Dir Waves Ship Positions

Mercs Mahaweli

Last reported at 2018-Feb-16 03:15 UTC. Time now 2018-Feb-19 04:26 UTC.
Position N 01°19' E 104°08'.

Length 140 m; draft 7.8 m.

Type: Ship (hazmat cat A). MMSI: 417222330.

Date/timePositionNaut miles runAvg speedWind from/ knotsBaromVisibWave heightAir tempDewpointWater temp
2018-Feb-16 03:15N 01°19' E 104°08'0 0.3
2018-Feb-16 02:59N 01°19' E 104°08'0 0.1
2018-Feb-16 02:24N 01°19' E 104°08'0 0.0
2018-Feb-16 01:29N 01°19' E 104°08'0 0.0
2018-Feb-16 01:00N 01°19' E 104°08'0 0.0
2018-Feb-16 00:27N 01°19' E 104°08'0 0.0
2018-Feb-15 23:59N 01°19' E 104°08'0 0.0
2018-Feb-15 23:30N 01°19' E 104°08'0 0.0
2018-Feb-15 22:54N 01°19' E 104°08'0 0.0
2018-Feb-15 17:15N 01°19' E 104°08'0 0.0
2018-Feb-15 16:30N 01°19' E 104°08'0 0.0
2018-Feb-15 15:59N 01°19' E 104°08'1 0.8
2018-Feb-15 14:58N 01°19' E 104°07'14 3.7
2018-Feb-15 11:04N 01°26' E 103°55'0 0.0
2018-Feb-15 10:58N 01°26' E 103°55'0 0.0
2018-Feb-14 23:10N 01°26' E 103°55'0 0.0
2018-Feb-14 22:59N 01°26' E 103°55'11 7.4
2018-Feb-14 21:29N 01°20' E 104°04'4 6.2
2018-Feb-14 20:53N 01°19' E 104°08'0 0.1
2018-Feb-14 17:35N 01°19' E 104°08'9 6.9
2018-Feb-14 16:16N 01°15' E 104°00'512.7
2018-Feb-14 15:51N 01°13' E 103°55'3 7.4
2018-Feb-14 15:28N 01°12' E 103°53'510.0
2018-Feb-14 14:59N 01°10' E 103°48'510.0
2018-Feb-14 14:29N 01°06' E 103°45'611.1
2018-Feb-14 13:58N 01°03' E 103°40'714.2
2018-Feb-14 13:30N 01°06' E 103°33'714.1
2018-Feb-14 12:59N 01°10' E 103°27'  

Dump ship's entire track history